sensor_id;sensor_type;location;lat;lon;timestamp;P1;durP1;ratioP1;P2;durP2;ratioP2
23743;SDS011;12052;53.478;10.182;2022-10-10T00:01:15;5.03;;;1.77;;
23743;SDS011;12052;53.478;10.182;2022-10-10T00:03:41;7.82;;;2.20;;
23743;SDS011;12052;53.478;10.182;2022-10-10T00:06:07;7.20;;;1.92;;
23743;SDS011;12052;53.478;10.182;2022-10-10T00:08:34;3.38;;;1.52;;
23743;SDS011;12052;53.478;10.182;2022-10-10T00:11:00;4.75;;;1.67;;
23743;SDS011;12052;53.478;10.182;2022-10-10T00:13:25;11.18;;;2.05;;
23743;SDS011;12052;53.478;10.182;2022-10-10T00:15:51;7.85;;;1.75;;
23743;SDS011;12052;53.478;10.182;2022-10-10T00:18:16;5.05;;;1.30;;
23743;SDS011;12052;53.478;10.182;2022-10-10T00:20:42;5.35;;;1.67;;
23743;SDS011;12052;53.478;10.182;2022-10-10T00:23:07;3.63;;;1.42;;
23743;SDS011;12052;53.478;10.182;2022-10-10T00:25:33;7.35;;;1.85;;
23743;SDS011;12052;53.478;10.182;2022-10-10T00:28:00;5.03;;;1.67;;
23743;SDS011;12052;53.478;10.182;2022-10-10T00:30:27;5.65;;;1.55;;
23743;SDS011;12052;53.478;10.182;2022-10-10T00:32:52;8.75;;;1.50;;
23743;SDS011;12052;53.478;10.182;2022-10-10T00:35:18;5.10;;;1.40;;
23743;SDS011;12052;53.478;10.182;2022-10-10T00:37:43;2.60;;;1.50;;
23743;SDS011;12052;53.478;10.182;2022-10-10T00:40:09;4.47;;;1.70;;
23743;SDS011;12052;53.478;10.182;2022-10-10T00:42:35;6.20;;;1.48;;
23743;SDS011;12052;53.478;10.182;2022-10-10T00:45:19;8.43;;;2.17;;
23743;SDS011;12052;53.478;10.182;2022-10-10T00:47:47;3.72;;;1.35;;
23743;SDS011;12052;53.478;10.182;2022-10-10T00:50:15;6.93;;;1.80;;
23743;SDS011;12052;53.478;10.182;2022-10-10T00:52:41;4.45;;;2.10;;
23743;SDS011;12052;53.478;10.182;2022-10-10T00:55:07;5.30;;;1.60;;
23743;SDS011;12052;53.478;10.182;2022-10-10T00:57:33;5.22;;;1.42;;
23743;SDS011;12052;53.478;10.182;2022-10-10T00:59:58;3.38;;;1.50;;
23743;SDS011;12052;53.478;10.182;2022-10-10T01:02:24;3.58;;;1.50;;
23743;SDS011;12052;53.478;10.182;2022-10-10T01:04:50;5.30;;;1.80;;
23743;SDS011;12052;53.478;10.182;2022-10-10T01:07:23;4.65;;;1.70;;
23743;SDS011;12052;53.478;10.182;2022-10-10T01:09:51;7.40;;;1.58;;
23743;SDS011;12052;53.478;10.182;2022-10-10T01:23:30;3.55;;;1.52;;
23743;SDS011;12052;53.478;10.182;2022-10-10T01:31:47;5.75;;;1.30;;
23743;SDS011;12052;53.478;10.182;2022-10-10T01:39:43;4.13;;;1.85;;
23743;SDS011;12052;53.478;10.182;2022-10-10T01:42:29;4.68;;;1.80;;
23743;SDS011;12052;53.478;10.182;2022-10-10T01:45:01;5.47;;;1.80;;
23743;SDS011;12052;53.478;10.182;2022-10-10T01:47:27;4.07;;;1.45;;
23743;SDS011;12052;53.478;10.182;2022-10-10T01:49:57;4.03;;;2.00;;
23743;SDS011;12052;53.478;10.182;2022-10-10T01:52:42;5.88;;;1.48;;
23743;SDS011;12052;53.478;10.182;2022-10-10T02:01:46;5.18;;;1.70;;
23743;SDS011;12052;53.478;10.182;2022-10-10T02:03:49;9.80;;;1.90;;
23743;SDS011;12052;53.478;10.182;2022-10-10T02:06:39;4.63;;;1.70;;
23743;SDS011;12052;53.478;10.182;2022-10-10T02:09:12;9.63;;;2.10;;
23743;SDS011;12052;53.478;10.182;2022-10-10T02:11:43;7.77;;;2.00;;
23743;SDS011;12052;53.478;10.182;2022-10-10T02:14:16;2.90;;;1.55;;
23743;SDS011;12052;53.478;10.182;2022-10-10T02:16:49;6.88;;;1.70;;
23743;SDS011;12052;53.478;10.182;2022-10-10T02:19:18;5.22;;;1.52;;
23743;SDS011;12052;53.478;10.182;2022-10-10T02:21:47;5.20;;;1.80;;
23743;SDS011;12052;53.478;10.182;2022-10-10T02:24:16;7.53;;;1.90;;
23743;SDS011;12052;53.478;10.182;2022-10-10T02:26:45;8.75;;;2.13;;
23743;SDS011;12052;53.478;10.182;2022-10-10T02:29:17;4.75;;;1.80;;
23743;SDS011;12052;53.478;10.182;2022-10-10T02:31:50;3.08;;;1.85;;
23743;SDS011;12052;53.478;10.182;2022-10-10T02:34:24;5.80;;;1.90;;
23743;SDS011;12052;53.478;10.182;2022-10-10T02:36:56;7.78;;;1.92;;
23743;SDS011;12052;53.478;10.182;2022-10-10T02:39:27;5.22;;;2.30;;
23743;SDS011;12052;53.478;10.182;2022-10-10T02:41:56;8.07;;;2.22;;
23743;SDS011;12052;53.478;10.182;2022-10-10T02:44:22;10.05;;;2.35;;
23743;SDS011;12052;53.478;10.182;2022-10-10T02:46:49;5.07;;;2.08;;
23743;SDS011;12052;53.478;10.182;2022-10-10T02:49:21;6.25;;;2.00;;
23743;SDS011;12052;53.478;10.182;2022-10-10T02:51:51;4.90;;;1.80;;
23743;SDS011;12052;53.478;10.182;2022-10-10T02:54:17;4.85;;;2.17;;
23743;SDS011;12052;53.478;10.182;2022-10-10T02:56:42;11.50;;;2.45;;
23743;SDS011;12052;53.478;10.182;2022-10-10T02:59:08;6.25;;;2.05;;
23743;SDS011;12052;53.478;10.182;2022-10-10T03:01:33;3.35;;;1.90;;
23743;SDS011;12052;53.478;10.182;2022-10-10T03:03:59;6.50;;;2.10;;
23743;SDS011;12052;53.478;10.182;2022-10-10T03:06:24;3.10;;;1.63;;
23743;SDS011;12052;53.478;10.182;2022-10-10T03:08:49;5.32;;;2.20;;
23743;SDS011;12052;53.478;10.182;2022-10-10T03:11:15;6.82;;;2.03;;
23743;SDS011;12052;53.478;10.182;2022-10-10T03:13:41;11.13;;;2.35;;
23743;SDS011;12052;53.478;10.182;2022-10-10T03:16:06;6.00;;;1.83;;
23743;SDS011;12052;53.478;10.182;2022-10-10T03:18:32;5.20;;;1.85;;
23743;SDS011;12052;53.478;10.182;2022-10-10T03:20:57;5.97;;;2.08;;
23743;SDS011;12052;53.478;10.182;2022-10-10T03:23:23;7.30;;;2.40;;
23743;SDS011;12052;53.478;10.182;2022-10-10T03:25:49;6.43;;;2.28;;
23743;SDS011;12052;53.478;10.182;2022-10-10T03:28:15;6.13;;;2.40;;
23743;SDS011;12052;53.478;10.182;2022-10-10T03:30:41;7.53;;;2.20;;
23743;SDS011;12052;53.478;10.182;2022-10-10T03:33:07;6.50;;;2.33;;
23743;SDS011;12052;53.478;10.182;2022-10-10T03:35:33;6.03;;;2.00;;
23743;SDS011;12052;53.478;10.182;2022-10-10T03:38:00;5.13;;;2.05;;
23743;SDS011;12052;53.478;10.182;2022-10-10T03:40:26;3.55;;;2.05;;
23743;SDS011;12052;53.478;10.182;2022-10-10T03:42:52;6.07;;;2.17;;
23743;SDS011;12052;53.478;10.182;2022-10-10T03:45:18;6.18;;;2.20;;
23743;SDS011;12052;53.478;10.182;2022-10-10T03:47:43;4.63;;;2.10;;
23743;SDS011;12052;53.478;10.182;2022-10-10T03:50:09;3.95;;;2.35;;
23743;SDS011;12052;53.478;10.182;2022-10-10T03:52:34;4.47;;;2.40;;
23743;SDS011;12052;53.478;10.182;2022-10-10T03:55:00;7.50;;;2.08;;
23743;SDS011;12052;53.478;10.182;2022-10-10T03:57:26;3.50;;;1.83;;
23743;SDS011;12052;53.478;10.182;2022-10-10T03:59:51;4.35;;;1.95;;
23743;SDS011;12052;53.478;10.182;2022-10-10T04:02:17;3.65;;;2.45;;
23743;SDS011;12052;53.478;10.182;2022-10-10T04:04:42;7.38;;;2.00;;
23743;SDS011;12052;53.478;10.182;2022-10-10T04:07:08;8.27;;;2.45;;
23743;SDS011;12052;53.478;10.182;2022-10-10T04:09:33;5.70;;;2.25;;
23743;SDS011;12052;53.478;10.182;2022-10-10T04:11:59;8.85;;;2.42;;
23743;SDS011;12052;53.478;10.182;2022-10-10T04:14:25;7.78;;;2.22;;
23743;SDS011;12052;53.478;10.182;2022-10-10T04:16:51;7.95;;;1.85;;
23743;SDS011;12052;53.478;10.182;2022-10-10T04:19:16;6.03;;;2.33;;
23743;SDS011;12052;53.478;10.182;2022-10-10T04:21:42;6.55;;;3.03;;
23743;SDS011;12052;53.478;10.182;2022-10-10T04:24:08;8.45;;;2.35;;
23743;SDS011;12052;53.478;10.182;2022-10-10T04:26:34;5.32;;;2.45;;
23743;SDS011;12052;53.478;10.182;2022-10-10T04:29:00;6.78;;;2.42;;
23743;SDS011;12052;53.478;10.182;2022-10-10T04:31:26;7.93;;;2.45;;
23743;SDS011;12052;53.478;10.182;2022-10-10T04:33:51;7.05;;;3.20;;
23743;SDS011;12052;53.478;10.182;2022-10-10T04:36:17;6.03;;;2.47;;
23743;SDS011;12052;53.478;10.182;2022-10-10T04:38:42;2.60;;;2.28;;
23743;SDS011;12052;53.478;10.182;2022-10-10T04:41:08;11.23;;;2.38;;
23743;SDS011;12052;53.478;10.182;2022-10-10T04:43:34;8.20;;;2.50;;
23743;SDS011;12052;53.478;10.182;2022-10-10T04:45:59;6.75;;;2.92;;
23743;SDS011;12052;53.478;10.182;2022-10-10T04:48:25;5.78;;;2.45;;
23743;SDS011;12052;53.478;10.182;2022-10-10T04:50:51;7.10;;;2.33;;
23743;SDS011;12052;53.478;10.182;2022-10-10T04:53:18;6.22;;;2.30;;
23743;SDS011;12052;53.478;10.182;2022-10-10T04:55:43;6.80;;;2.38;;
23743;SDS011;12052;53.478;10.182;2022-10-10T04:58:09;4.75;;;2.47;;
23743;SDS011;12052;53.478;10.182;2022-10-10T05:00:35;10.93;;;2.88;;
23743;SDS011;12052;53.478;10.182;2022-10-10T05:03:02;9.73;;;3.10;;
23743;SDS011;12052;53.478;10.182;2022-10-10T05:05:27;5.93;;;2.95;;
23743;SDS011;12052;53.478;10.182;2022-10-10T05:07:53;7.70;;;2.65;;
23743;SDS011;12052;53.478;10.182;2022-10-10T05:10:18;4.15;;;2.33;;
23743;SDS011;12052;53.478;10.182;2022-10-10T05:12:44;9.00;;;2.75;;
23743;SDS011;12052;53.478;10.182;2022-10-10T05:15:10;6.57;;;2.83;;
23743;SDS011;12052;53.478;10.182;2022-10-10T05:17:36;10.75;;;2.47;;
23743;SDS011;12052;53.478;10.182;2022-10-10T05:20:01;9.93;;;2.55;;
23743;SDS011;12052;53.478;10.182;2022-10-10T05:22:27;7.28;;;3.15;;
23743;SDS011;12052;53.478;10.182;2022-10-10T05:24:53;8.93;;;2.88;;
23743;SDS011;12052;53.478;10.182;2022-10-10T05:27:18;12.05;;;2.97;;
23743;SDS011;12052;53.478;10.182;2022-10-10T05:29:44;6.70;;;2.60;;
23743;SDS011;12052;53.478;10.182;2022-10-10T05:32:10;9.25;;;2.63;;
23743;SDS011;12052;53.478;10.182;2022-10-10T05:34:35;8.13;;;2.50;;
23743;SDS011;12052;53.478;10.182;2022-10-10T05:37:01;7.43;;;3.17;;
23743;SDS011;12052;53.478;10.182;2022-10-10T05:39:26;6.00;;;2.90;;
23743;SDS011;12052;53.478;10.182;2022-10-10T05:41:52;6.85;;;2.65;;
23743;SDS011;12052;53.478;10.182;2022-10-10T05:44:17;5.75;;;2.65;;
23743;SDS011;12052;53.478;10.182;2022-10-10T05:46:43;4.57;;;2.72;;
23743;SDS011;12052;53.478;10.182;2022-10-10T05:49:08;8.15;;;2.95;;
23743;SDS011;12052;53.478;10.182;2022-10-10T05:51:34;5.88;;;2.70;;
23743;SDS011;12052;53.478;10.182;2022-10-10T05:53:59;9.35;;;2.88;;
23743;SDS011;12052;53.478;10.182;2022-10-10T05:56:25;15.20;;;3.50;;
23743;SDS011;12052;53.478;10.182;2022-10-10T05:58:51;10.07;;;3.28;;
23743;SDS011;12052;53.478;10.182;2022-10-10T06:01:16;7.57;;;3.03;;
23743;SDS011;12052;53.478;10.182;2022-10-10T06:03:42;9.60;;;3.33;;
23743;SDS011;12052;53.478;10.182;2022-10-10T06:06:07;8.60;;;3.38;;
23743;SDS011;12052;53.478;10.182;2022-10-10T06:08:33;8.27;;;3.15;;
23743;SDS011;12052;53.478;10.182;2022-10-10T06:11:00;9.07;;;3.75;;
23743;SDS011;12052;53.478;10.182;2022-10-10T06:13:27;8.55;;;3.40;;
23743;SDS011;12052;53.478;10.182;2022-10-10T06:15:53;4.68;;;2.72;;
23743;SDS011;12052;53.478;10.182;2022-10-10T06:18:19;15.68;;;4.00;;
23743;SDS011;12052;53.478;10.182;2022-10-10T06:20:44;6.40;;;3.55;;
23743;SDS011;12052;53.478;10.182;2022-10-10T06:23:10;8.35;;;3.60;;
23743;SDS011;12052;53.478;10.182;2022-10-10T06:25:36;10.43;;;3.95;;
23743;SDS011;12052;53.478;10.182;2022-10-10T06:28:02;13.35;;;3.45;;
23743;SDS011;12052;53.478;10.182;2022-10-10T06:30:28;5.07;;;3.05;;
23743;SDS011;12052;53.478;10.182;2022-10-10T06:32:53;5.90;;;3.38;;
23743;SDS011;12052;53.478;10.182;2022-10-10T06:35:19;12.98;;;3.60;;
23743;SDS011;12052;53.478;10.182;2022-10-10T06:37:45;7.72;;;3.50;;
23743;SDS011;12052;53.478;10.182;2022-10-10T06:40:10;9.80;;;3.85;;
23743;SDS011;12052;53.478;10.182;2022-10-10T06:42:36;6.85;;;3.08;;
23743;SDS011;12052;53.478;10.182;2022-10-10T06:45:01;12.88;;;3.85;;
23743;SDS011;12052;53.478;10.182;2022-10-10T06:47:27;12.52;;;5.28;;
23743;SDS011;12052;53.478;10.182;2022-10-10T06:49:54;11.13;;;3.88;;
23743;SDS011;12052;53.478;10.182;2022-10-10T06:52:20;10.20;;;3.53;;
23743;SDS011;12052;53.478;10.182;2022-10-10T06:54:45;8.80;;;4.13;;
23743;SDS011;12052;53.478;10.182;2022-10-10T06:57:11;8.98;;;3.50;;
23743;SDS011;12052;53.478;10.182;2022-10-10T06:59:36;10.18;;;4.25;;
23743;SDS011;12052;53.478;10.182;2022-10-10T07:02:02;10.13;;;4.35;;
23743;SDS011;12052;53.478;10.182;2022-10-10T07:04:28;11.27;;;3.88;;
23743;SDS011;12052;53.478;10.182;2022-10-10T07:06:53;7.95;;;3.97;;
23743;SDS011;12052;53.478;10.182;2022-10-10T07:09:19;5.90;;;3.53;;
23743;SDS011;12052;53.478;10.182;2022-10-10T07:11:44;6.30;;;3.67;;
23743;SDS011;12052;53.478;10.182;2022-10-10T07:14:11;6.97;;;3.63;;
23743;SDS011;12052;53.478;10.182;2022-10-10T07:16:36;10.20;;;3.90;;
23743;SDS011;12052;53.478;10.182;2022-10-10T07:19:02;12.27;;;4.18;;
23743;SDS011;12052;53.478;10.182;2022-10-10T07:21:27;7.28;;;3.50;;
23743;SDS011;12052;53.478;10.182;2022-10-10T07:23:53;10.23;;;3.70;;
23743;SDS011;12052;53.478;10.182;2022-10-10T07:26:19;8.88;;;3.63;;
23743;SDS011;12052;53.478;10.182;2022-10-10T07:28:46;9.52;;;3.50;;
23743;SDS011;12052;53.478;10.182;2022-10-10T07:31:13;6.13;;;3.63;;
23743;SDS011;12052;53.478;10.182;2022-10-10T07:33:41;9.60;;;4.13;;
23743;SDS011;12052;53.478;10.182;2022-10-10T07:36:09;6.90;;;3.65;;
23743;SDS011;12052;53.478;10.182;2022-10-10T07:38:35;7.43;;;3.47;;
23743;SDS011;12052;53.478;10.182;2022-10-10T07:41:08;7.82;;;3.67;;
23743;SDS011;12052;53.478;10.182;2022-10-10T07:43:36;17.88;;;3.95;;
23743;SDS011;12052;53.478;10.182;2022-10-10T07:46:02;5.90;;;3.65;;
23743;SDS011;12052;53.478;10.182;2022-10-10T07:48:28;10.02;;;3.75;;
23743;SDS011;12052;53.478;10.182;2022-10-10T07:50:54;11.07;;;3.83;;
23743;SDS011;12052;53.478;10.182;2022-10-10T07:53:20;6.55;;;3.58;;
23743;SDS011;12052;53.478;10.182;2022-10-10T07:55:45;10.85;;;3.55;;
23743;SDS011;12052;53.478;10.182;2022-10-10T07:58:11;11.15;;;4.00;;
23743;SDS011;12052;53.478;10.182;2022-10-10T08:00:37;7.82;;;3.20;;
23743;SDS011;12052;53.478;10.182;2022-10-10T08:03:06;11.93;;;3.60;;
23743;SDS011;12052;53.478;10.182;2022-10-10T08:05:33;6.30;;;2.47;;
23743;SDS011;12052;53.478;10.182;2022-10-10T08:07:58;8.23;;;3.28;;
23743;SDS011;12052;53.478;10.182;2022-10-10T08:10:24;7.65;;;3.17;;
23743;SDS011;12052;53.478;10.182;2022-10-10T08:12:50;7.20;;;3.10;;
23743;SDS011;12052;53.478;10.182;2022-10-10T08:15:15;11.63;;;3.40;;
23743;SDS011;12052;53.478;10.182;2022-10-10T08:17:41;6.93;;;3.33;;
23743;SDS011;12052;53.478;10.182;2022-10-10T08:20:06;14.02;;;2.95;;
23743;SDS011;12052;53.478;10.182;2022-10-10T08:22:33;8.20;;;3.33;;
23743;SDS011;12052;53.478;10.182;2022-10-10T08:24:58;6.78;;;3.03;;
23743;SDS011;12052;53.478;10.182;2022-10-10T08:27:24;7.57;;;3.75;;
23743;SDS011;12052;53.478;10.182;2022-10-10T08:29:49;7.75;;;3.53;;
23743;SDS011;12052;53.478;10.182;2022-10-10T08:32:15;6.82;;;3.13;;
23743;SDS011;12052;53.478;10.182;2022-10-10T08:34:41;6.68;;;2.78;;
23743;SDS011;12052;53.478;10.182;2022-10-10T08:37:07;10.45;;;3.20;;
23743;SDS011;12052;53.478;10.182;2022-10-10T08:39:32;5.90;;;3.03;;
23743;SDS011;12052;53.478;10.182;2022-10-10T08:41:59;5.05;;;3.08;;
23743;SDS011;12052;53.478;10.182;2022-10-10T08:49:35;12.70;;;2.75;;
23743;SDS011;12052;53.478;10.182;2022-10-10T08:54:50;6.05;;;2.72;;
23743;SDS011;12052;53.478;10.182;2022-10-10T09:00:06;8.23;;;2.85;;
23743;SDS011;12052;53.478;10.182;2022-10-10T09:02:52;3.92;;;2.30;;
23743;SDS011;12052;53.478;10.182;2022-10-10T09:05:26;8.38;;;2.53;;
23743;SDS011;12052;53.478;10.182;2022-10-10T09:10:52;5.57;;;2.63;;
23743;SDS011;12052;53.478;10.182;2022-10-10T09:15:56;8.57;;;2.67;;
23743;SDS011;12052;53.478;10.182;2022-10-10T09:18:40;3.80;;;2.33;;
23743;SDS011;12052;53.478;10.182;2022-10-10T09:21:30;8.55;;;2.22;;
23743;SDS011;12052;53.478;10.182;2022-10-10T09:24:03;8.52;;;2.10;;
23743;SDS011;12052;53.478;10.182;2022-10-10T09:26:45;5.55;;;2.22;;
23743;SDS011;12052;53.478;10.182;2022-10-10T09:29:27;5.10;;;2.50;;
23743;SDS011;12052;53.478;10.182;2022-10-10T09:32:29;9.90;;;2.33;;
23743;SDS011;12052;53.478;10.182;2022-10-10T09:37:40;7.03;;;2.13;;
23743;SDS011;12052;53.478;10.182;2022-10-10T09:40:11;9.05;;;1.95;;
23743;SDS011;12052;53.478;10.182;2022-10-10T09:42:42;4.28;;;2.15;;
23743;SDS011;12052;53.478;10.182;2022-10-10T09:45:19;9.93;;;2.33;;
23743;SDS011;12052;53.478;10.182;2022-10-10T09:47:52;3.15;;;1.70;;
23743;SDS011;12052;53.478;10.182;2022-10-10T09:50:19;7.45;;;2.15;;
23743;SDS011;12052;53.478;10.182;2022-10-10T09:52:45;51.22;;;4.03;;
23743;SDS011;12052;53.478;10.182;2022-10-10T09:55:20;6.88;;;1.58;;
23743;SDS011;12052;53.478;10.182;2022-10-10T09:57:50;3.60;;;1.75;;
23743;SDS011;12052;53.478;10.182;2022-10-10T10:02:42;4.47;;;2.08;;
23743;SDS011;12052;53.478;10.182;2022-10-10T10:05:20;5.13;;;2.38;;
23743;SDS011;12052;53.478;10.182;2022-10-10T10:07:49;3.28;;;1.70;;
23743;SDS011;12052;53.478;10.182;2022-10-10T10:10:24;3.63;;;1.70;;
23743;SDS011;12052;53.478;10.182;2022-10-10T10:12:51;9.00;;;1.83;;
23743;SDS011;12052;53.478;10.182;2022-10-10T10:15:19;6.03;;;1.65;;
23743;SDS011;12052;53.478;10.182;2022-10-10T10:18:09;7.50;;;2.10;;
23743;SDS011;12052;53.478;10.182;2022-10-10T10:20:37;3.85;;;1.63;;
23743;SDS011;12052;53.478;10.182;2022-10-10T10:23:19;3.38;;;1.70;;
23743;SDS011;12052;53.478;10.182;2022-10-10T10:25:55;7.28;;;2.53;;
23743;SDS011;12052;53.478;10.182;2022-10-10T10:28:22;4.15;;;2.45;;
23743;SDS011;12052;53.478;10.182;2022-10-10T10:30:48;3.90;;;1.63;;
23743;SDS011;12052;53.478;10.182;2022-10-10T10:38:51;5.28;;;1.98;;
23743;SDS011;12052;53.478;10.182;2022-10-10T10:41:28;2.95;;;1.90;;
23743;SDS011;12052;53.478;10.182;2022-10-10T10:47:25;2.97;;;2.10;;
23743;SDS011;12052;53.478;10.182;2022-10-10T10:55:44;7.80;;;2.40;;
23743;SDS011;12052;53.478;10.182;2022-10-10T11:01:01;5.35;;;2.28;;
23743;SDS011;12052;53.478;10.182;2022-10-10T11:09:13;5.13;;;2.20;;
23743;SDS011;12052;53.478;10.182;2022-10-10T11:11:47;5.03;;;2.08;;
23743;SDS011;12052;53.478;10.182;2022-10-10T11:17:06;4.13;;;2.50;;
23743;SDS011;12052;53.478;10.182;2022-10-10T11:19:49;3.87;;;1.80;;
23743;SDS011;12052;53.478;10.182;2022-10-10T11:22:32;4.75;;;2.33;;
23743;SDS011;12052;53.478;10.182;2022-10-10T11:25:13;3.38;;;1.65;;
23743;SDS011;12052;53.478;10.182;2022-10-10T11:27:54;5.28;;;1.75;;
23743;SDS011;12052;53.478;10.182;2022-10-10T11:30:41;3.80;;;1.63;;
23743;SDS011;12052;53.478;10.182;2022-10-10T11:33:17;5.28;;;1.83;;
23743;SDS011;12052;53.478;10.182;2022-10-10T11:35:54;9.23;;;2.17;;
23743;SDS011;12052;53.478;10.182;2022-10-10T11:44:07;6.40;;;1.98;;
23743;SDS011;12052;53.478;10.182;2022-10-10T11:54:12;5.72;;;1.50;;
23743;SDS011;12052;53.478;10.182;2022-10-10T11:56:53;4.65;;;1.70;;
23743;SDS011;12052;53.478;10.182;2022-10-10T11:59:40;17.42;;;2.85;;
23743;SDS011;12052;53.478;10.182;2022-10-10T12:02:34;7.68;;;1.77;;
23743;SDS011;12052;53.478;10.182;2022-10-10T12:05:00;5.70;;;2.15;;
23743;SDS011;12052;53.478;10.182;2022-10-10T12:07:30;2.63;;;1.30;;
23743;SDS011;12052;53.478;10.182;2022-10-10T12:12:34;6.47;;;1.70;;
23743;SDS011;12052;53.478;10.182;2022-10-10T12:15:04;8.00;;;1.70;;
23743;SDS011;12052;53.478;10.182;2022-10-10T12:17:35;5.72;;;1.48;;
23743;SDS011;12052;53.478;10.182;2022-10-10T12:20:09;6.55;;;1.73;;
23743;SDS011;12052;53.478;10.182;2022-10-10T12:31:16;4.70;;;1.83;;
23743;SDS011;12052;53.478;10.182;2022-10-10T12:44:22;9.88;;;2.15;;
23743;SDS011;12052;53.478;10.182;2022-10-10T12:49:37;8.02;;;1.70;;
23743;SDS011;12052;53.478;10.182;2022-10-10T12:52:18;5.38;;;2.05;;
23743;SDS011;12052;53.478;10.182;2022-10-10T12:54:46;7.53;;;2.40;;
23743;SDS011;12052;53.478;10.182;2022-10-10T13:00:15;9.43;;;1.98;;
23743;SDS011;12052;53.478;10.182;2022-10-10T13:02:43;8.05;;;2.20;;
23743;SDS011;12052;53.478;10.182;2022-10-10T13:05:13;6.18;;;2.05;;
23743;SDS011;12052;53.478;10.182;2022-10-10T13:07:42;6.65;;;2.05;;
23743;SDS011;12052;53.478;10.182;2022-10-10T13:10:22;6.03;;;3.28;;
23743;SDS011;12052;53.478;10.182;2022-10-10T13:15:37;4.18;;;1.98;;
23743;SDS011;12052;53.478;10.182;2022-10-10T13:18:03;4.75;;;2.25;;
23743;SDS011;12052;53.478;10.182;2022-10-10T13:20:36;3.47;;;2.03;;
23743;SDS011;12052;53.478;10.182;2022-10-10T13:23:04;7.50;;;2.25;;
23743;SDS011;12052;53.478;10.182;2022-10-10T13:25:34;6.45;;;2.47;;
23743;SDS011;12052;53.478;10.182;2022-10-10T13:28:03;11.82;;;2.50;;
23743;SDS011;12052;53.478;10.182;2022-10-10T13:30:39;7.60;;;2.70;;
23743;SDS011;12052;53.478;10.182;2022-10-10T13:33:05;9.50;;;3.00;;
23743;SDS011;12052;53.478;10.182;2022-10-10T13:35:42;4.93;;;2.70;;
23743;SDS011;12052;53.478;10.182;2022-10-10T13:38:11;8.80;;;2.33;;
23743;SDS011;12052;53.478;10.182;2022-10-10T13:40:38;7.05;;;2.70;;
23743;SDS011;12052;53.478;10.182;2022-10-10T13:43:10;10.18;;;2.22;;
23743;SDS011;12052;53.478;10.182;2022-10-10T13:45:47;6.47;;;2.53;;
23743;SDS011;12052;53.478;10.182;2022-10-10T13:48:21;4.78;;;2.08;;
23743;SDS011;12052;53.478;10.182;2022-10-10T13:51:01;7.50;;;2.15;;
23743;SDS011;12052;53.478;10.182;2022-10-10T13:53:42;6.47;;;2.90;;
23743;SDS011;12052;53.478;10.182;2022-10-10T14:01:30;7.47;;;2.03;;
23743;SDS011;12052;53.478;10.182;2022-10-10T14:07:18;3.35;;;2.45;;
23743;SDS011;12052;53.478;10.182;2022-10-10T14:09:51;10.30;;;2.40;;
23743;SDS011;12052;53.478;10.182;2022-10-10T14:12:37;3.97;;;2.35;;
23743;SDS011;12052;53.478;10.182;2022-10-10T14:18:25;5.72;;;2.50;;
23743;SDS011;12052;53.478;10.182;2022-10-10T14:20:50;6.45;;;2.25;;
23743;SDS011;12052;53.478;10.182;2022-10-10T14:23:17;3.80;;;2.30;;
23743;SDS011;12052;53.478;10.182;2022-10-10T14:25:44;16.90;;;3.17;;
23743;SDS011;12052;53.478;10.182;2022-10-10T14:28:17;9.52;;;2.42;;
23743;SDS011;12052;53.478;10.182;2022-10-10T14:30:45;8.77;;;2.13;;
23743;SDS011;12052;53.478;10.182;2022-10-10T14:33:11;6.93;;;2.30;;
23743;SDS011;12052;53.478;10.182;2022-10-10T14:35:37;7.03;;;2.28;;
23743;SDS011;12052;53.478;10.182;2022-10-10T14:38:03;7.13;;;2.30;;
23743;SDS011;12052;53.478;10.182;2022-10-10T14:40:28;5.15;;;2.28;;
23743;SDS011;12052;53.478;10.182;2022-10-10T14:42:55;8.02;;;2.20;;
23743;SDS011;12052;53.478;10.182;2022-10-10T14:45:21;4.68;;;2.25;;
23743;SDS011;12052;53.478;10.182;2022-10-10T14:47:47;7.07;;;2.38;;
23743;SDS011;12052;53.478;10.182;2022-10-10T14:50:13;3.65;;;2.13;;
23743;SDS011;12052;53.478;10.182;2022-10-10T14:52:40;6.90;;;2.50;;
23743;SDS011;12052;53.478;10.182;2022-10-10T14:55:06;8.05;;;4.03;;
23743;SDS011;12052;53.478;10.182;2022-10-10T14:57:32;12.00;;;4.47;;
23743;SDS011;12052;53.478;10.182;2022-10-10T14:59:58;9.65;;;4.03;;
23743;SDS011;12052;53.478;10.182;2022-10-10T15:02:23;11.82;;;3.15;;
23743;SDS011;12052;53.478;10.182;2022-10-10T15:04:49;5.32;;;2.50;;
23743;SDS011;12052;53.478;10.182;2022-10-10T15:07:15;7.93;;;2.75;;
23743;SDS011;12052;53.478;10.182;2022-10-10T15:09:44;10.40;;;2.70;;
23743;SDS011;12052;53.478;10.182;2022-10-10T15:12:11;10.57;;;2.85;;
23743;SDS011;12052;53.478;10.182;2022-10-10T15:14:36;6.07;;;2.53;;
23743;SDS011;12052;53.478;10.182;2022-10-10T15:17:02;5.05;;;2.65;;
23743;SDS011;12052;53.478;10.182;2022-10-10T15:19:27;4.38;;;2.30;;
23743;SDS011;12052;53.478;10.182;2022-10-10T15:21:53;3.60;;;2.17;;
23743;SDS011;12052;53.478;10.182;2022-10-10T15:24:19;5.55;;;2.40;;
23743;SDS011;12052;53.478;10.182;2022-10-10T15:26:44;4.00;;;2.20;;
23743;SDS011;12052;53.478;10.182;2022-10-10T15:29:10;4.60;;;2.30;;
23743;SDS011;12052;53.478;10.182;2022-10-10T15:31:35;3.58;;;2.13;;
23743;SDS011;12052;53.478;10.182;2022-10-10T15:34:01;11.18;;;2.30;;
23743;SDS011;12052;53.478;10.182;2022-10-10T15:36:28;6.70;;;2.15;;
23743;SDS011;12052;53.478;10.182;2022-10-10T15:38:53;6.50;;;1.80;;
23743;SDS011;12052;53.478;10.182;2022-10-10T15:41:19;6.22;;;2.22;;
23743;SDS011;12052;53.478;10.182;2022-10-10T15:43:48;13.45;;;2.72;;
23743;SDS011;12052;53.478;10.182;2022-10-10T15:46:18;6.13;;;2.05;;
23743;SDS011;12052;53.478;10.182;2022-10-10T15:48:48;10.98;;;2.10;;
23743;SDS011;12052;53.478;10.182;2022-10-10T15:51:14;4.63;;;2.20;;
23743;SDS011;12052;53.478;10.182;2022-10-10T15:53:40;3.13;;;1.95;;
23743;SDS011;12052;53.478;10.182;2022-10-10T15:56:07;8.40;;;2.20;;
23743;SDS011;12052;53.478;10.182;2022-10-10T15:58:34;10.30;;;2.03;;
23743;SDS011;12052;53.478;10.182;2022-10-10T16:01:07;10.60;;;2.28;;
23743;SDS011;12052;53.478;10.182;2022-10-10T16:03:40;7.18;;;2.20;;
23743;SDS011;12052;53.478;10.182;2022-10-10T16:06:06;7.20;;;2.50;;
23743;SDS011;12052;53.478;10.182;2022-10-10T16:08:32;4.18;;;2.38;;
23743;SDS011;12052;53.478;10.182;2022-10-10T16:11:02;8.70;;;2.60;;
23743;SDS011;12052;53.478;10.182;2022-10-10T16:13:39;6.03;;;2.38;;
23743;SDS011;12052;53.478;10.182;2022-10-10T16:16:06;6.28;;;2.33;;
23743;SDS011;12052;53.478;10.182;2022-10-10T16:18:36;5.22;;;2.25;;
23743;SDS011;12052;53.478;10.182;2022-10-10T16:21:04;10.75;;;3.10;;
23743;SDS011;12052;53.478;10.182;2022-10-10T16:23:34;4.93;;;2.63;;
23743;SDS011;12052;53.478;10.182;2022-10-10T16:26:01;8.93;;;2.40;;
23743;SDS011;12052;53.478;10.182;2022-10-10T16:28:36;4.53;;;2.60;;
23743;SDS011;12052;53.478;10.182;2022-10-10T16:31:02;10.30;;;3.03;;
23743;SDS011;12052;53.478;10.182;2022-10-10T16:33:30;8.95;;;3.55;;
23743;SDS011;12052;53.478;10.182;2022-10-10T16:35:56;10.10;;;2.95;;
23743;SDS011;12052;53.478;10.182;2022-10-10T16:38:22;8.02;;;2.80;;
23743;SDS011;12052;53.478;10.182;2022-10-10T16:40:47;7.60;;;2.65;;
23743;SDS011;12052;53.478;10.182;2022-10-10T16:43:13;11.40;;;3.15;;
23743;SDS011;12052;53.478;10.182;2022-10-10T16:45:41;12.30;;;3.72;;
23743;SDS011;12052;53.478;10.182;2022-10-10T16:48:08;7.25;;;3.17;;
23743;SDS011;12052;53.478;10.182;2022-10-10T16:50:36;12.90;;;4.53;;
23743;SDS011;12052;53.478;10.182;2022-10-10T16:55:37;9.63;;;3.60;;